createdAt,value
2023-03-13T00:00:33.449Z,5.18
2023-03-13T00:03:19.447Z,4.97
2023-03-13T00:06:05.548Z,5.28
2023-03-13T00:08:51.075Z,7.85
2023-03-13T00:11:36.581Z,6.65
2023-03-13T00:14:21.839Z,7.07
2023-03-13T00:17:07.214Z,8.32
2023-03-13T00:19:52.977Z,7.25
2023-03-13T00:22:38.335Z,8.30
2023-03-13T00:25:23.887Z,8.25
2023-03-13T00:28:09.623Z,7.78
2023-03-13T00:31:09.712Z,7.93
2023-03-13T00:33:59.127Z,7.25
2023-03-13T00:36:44.429Z,7.93
2023-03-13T00:39:30.040Z,7.13
2023-03-13T00:42:15.582Z,7.43
2023-03-13T00:45:01.273Z,7.30
2023-03-13T00:47:46.884Z,8.98
2023-03-13T00:50:32.734Z,6.60
2023-03-13T00:53:18.507Z,6.93
2023-03-13T00:56:06.112Z,7.25
2023-03-13T01:00:15.579Z,8.15
2023-03-13T01:03:01.334Z,8.00
2023-03-13T01:05:59.358Z,8.27
2023-03-13T01:08:45.465Z,7.55
2023-03-13T01:11:34.652Z,9.10
2023-03-13T01:14:20.827Z,9.18
2023-03-13T01:17:06.794Z,5.13
2023-03-13T01:19:56.195Z,7.63
2023-03-13T01:22:41.746Z,5.65
2023-03-13T01:25:27.511Z,5.30
2023-03-13T01:28:13.067Z,6.35
2023-03-13T01:30:59.902Z,5.93
2023-03-13T01:33:46.725Z,5.57
2023-03-13T01:36:33.090Z,5.15
2023-03-13T01:39:18.749Z,4.63
2023-03-13T01:42:05.436Z,4.43
2023-03-13T01:44:57.052Z,4.93
2023-03-13T01:47:43.111Z,5.53
2023-03-13T01:50:28.649Z,5.22
2023-03-13T01:53:14.456Z,4.20
2023-03-13T01:56:05.372Z,5.88
2023-03-13T01:58:52.996Z,3.50
2023-03-13T02:01:39.260Z,4.57
2023-03-13T02:04:26.769Z,2.83
2023-03-13T02:07:17.311Z,2.88
2023-03-13T02:10:02.971Z,3.33
2023-03-13T02:12:49.588Z,2.97
2023-03-13T02:15:35.182Z,2.95
2023-03-13T02:18:20.513Z,3.22
2023-03-13T02:21:14.219Z,2.88
2023-03-13T02:24:09.644Z,2.60
2023-03-13T02:26:55.511Z,2.13
2023-03-13T02:29:41.710Z,2.30
2023-03-13T02:32:32.852Z,2.30
2023-03-13T02:35:21.126Z,3.45
2023-03-13T02:38:10.434Z,2.03
2023-03-13T02:40:57.446Z,2.85
2023-03-13T02:43:42.949Z,2.53
2023-03-13T02:46:28.601Z,2.70
2023-03-13T02:49:21.990Z,3.00
2023-03-13T02:52:20.690Z,3.03
2023-03-13T02:55:10.868Z,2.67
2023-03-13T02:57:56.445Z,3.63
2023-03-13T03:00:41.933Z,3.28
2023-03-13T03:03:27.717Z,2.78
2023-03-13T03:06:13.093Z,2.88
2023-03-13T03:08:58.705Z,2.83
2023-03-13T03:11:44.429Z,3.22
2023-03-13T03:14:29.971Z,3.97
2023-03-13T03:17:15.370Z,3.22
2023-03-13T03:20:00.934Z,3.05
2023-03-13T03:22:46.335Z,2.78
2023-03-13T03:25:31.760Z,2.90
2023-03-13T03:28:17.428Z,2.60
2023-03-13T03:31:10.592Z,2.47
2023-03-13T03:36:42.637Z,1.77
2023-03-13T03:39:28.463Z,1.50
2023-03-13T03:42:13.830Z,1.70
2023-03-13T03:44:59.377Z,1.58
2023-03-13T03:47:45.007Z,1.40
2023-03-13T03:50:30.174Z,1.40
2023-03-13T03:53:15.890Z,1.23
2023-03-13T03:56:02.033Z,1.20
2023-03-13T03:58:47.814Z,1.85
2023-03-13T04:01:33.284Z,1.10
2023-03-13T04:04:18.648Z,1.23
2023-03-13T04:07:04.401Z,1.75
2023-03-13T04:09:50.215Z,0.82
2023-03-13T04:12:35.863Z,1.25
2023-03-13T04:15:21.489Z,1.38
2023-03-13T04:18:07.086Z,1.42
2023-03-13T04:21:04.247Z,1.42
2023-03-13T04:23:49.572Z,1.90
2023-03-13T04:26:35.166Z,2.08
2023-03-13T04:29:21.050Z,1.83
2023-03-13T04:32:07.076Z,2.33
2023-03-13T04:34:53.019Z,1.58
2023-03-13T04:37:38.558Z,2.20
2023-03-13T04:40:24.148Z,2.42
2023-03-13T04:43:09.951Z,1.73
2023-03-13T04:45:55.486Z,1.80
2023-03-13T04:48:41.390Z,1.95
2023-03-13T04:51:27.088Z,2.85
2023-03-13T04:54:12.797Z,2.03
2023-03-13T04:56:58.341Z,2.10
2023-03-13T04:59:44.292Z,2.55
2023-03-13T05:02:29.961Z,2.20
2023-03-13T05:05:15.605Z,2.28
2023-03-13T05:08:01.459Z,2.20
2023-03-13T05:10:47.521Z,2.28
2023-03-13T05:13:33.354Z,2.20
2023-03-13T05:16:19.243Z,2.83
2023-03-13T05:19:04.667Z,3.33
2023-03-13T05:21:50.296Z,2.97
2023-03-13T05:24:35.653Z,3.17
2023-03-13T05:27:21.223Z,3.65
2023-03-13T05:30:07.872Z,3.00
2023-03-13T05:32:53.272Z,3.20
2023-03-13T05:35:39.305Z,3.80
2023-03-13T05:38:25.582Z,3.80
2023-03-13T05:41:11.459Z,3.83
2023-03-13T05:43:57.364Z,3.72
2023-03-13T05:46:42.936Z,3.40
2023-03-13T05:49:28.546Z,5.85
2023-03-13T05:52:15.553Z,3.75
2023-03-13T05:55:01.029Z,5.18
2023-03-13T05:57:47.929Z,4.88
2023-03-13T06:00:33.847Z,4.85
2023-03-13T06:03:19.247Z,5.60
2023-03-13T06:06:05.657Z,6.00
2023-03-13T06:08:53.676Z,5.43
2023-03-13T06:11:39.414Z,4.28
2023-03-13T06:14:24.902Z,4.82
2023-03-13T06:17:10.165Z,3.08
2023-03-13T06:19:55.935Z,4.65
2023-03-13T06:22:42.507Z,3.80
2023-03-13T06:25:28.293Z,4.13
2023-03-13T06:28:13.734Z,4.18
2023-03-13T06:31:04.054Z,3.95
2023-03-13T06:33:53.564Z,3.60
2023-03-13T06:36:38.854Z,4.97
2023-03-13T06:39:24.434Z,5.70
2023-03-13T06:42:09.884Z,5.68
2023-03-13T06:44:55.450Z,5.82
2023-03-13T06:47:41.290Z,6.05
2023-03-13T06:50:27.131Z,5.38
2023-03-13T06:53:20.484Z,6.63
2023-03-13T06:56:07.755Z,6.88
2023-03-13T06:58:54.047Z,7.53
2023-03-13T07:01:39.625Z,6.80
2023-03-13T07:04:25.124Z,6.53
2023-03-13T07:07:22.140Z,6.35
2023-03-13T07:10:15.132Z,7.35
2023-03-13T07:13:00.616Z,6.95
2023-03-13T07:15:46.273Z,6.85
2023-03-13T07:18:33.148Z,7.60
2023-03-13T07:21:18.673Z,7.40
2023-03-13T07:24:04.575Z,7.40
2023-03-13T07:27:04.183Z,7.82
2023-03-13T07:29:51.770Z,6.57
2023-03-13T07:32:37.497Z,8.75
2023-03-13T07:35:23.070Z,6.50
2023-03-13T07:38:08.237Z,7.10
2023-03-13T07:40:55.237Z,6.07
2023-03-13T07:43:41.045Z,7.57
2023-03-13T07:46:26.560Z,6.57
2023-03-13T07:49:12.336Z,8.43
2023-03-13T07:51:58.251Z,9.80
2023-03-13T07:54:44.078Z,8.38
2023-03-13T07:57:29.825Z,7.57
2023-03-13T08:00:17.556Z,7.35
2023-03-13T08:03:05.233Z,7.93
2023-03-13T08:06:06.961Z,7.50
2023-03-13T08:08:53.732Z,7.82
2023-03-13T08:11:44.598Z,8.88
2023-03-13T08:14:30.009Z,6.93
2023-03-13T08:17:15.502Z,9.35
2023-03-13T08:20:01.000Z,8.25
2023-03-13T08:22:46.885Z,8.43
2023-03-13T08:25:33.018Z,7.63
2023-03-13T08:28:18.363Z,8.50
2023-03-13T08:31:12.238Z,6.85
2023-03-13T08:33:59.357Z,9.15
2023-03-13T08:36:45.369Z,8.43
2023-03-13T08:39:30.825Z,8.82
2023-03-13T08:42:16.421Z,6.60
2023-03-13T08:45:01.838Z,7.85
2023-03-13T08:47:47.480Z,8.32
2023-03-13T08:50:33.183Z,8.38
2023-03-13T08:53:18.696Z,5.82
2023-03-13T08:56:04.732Z,7.75
2023-03-13T08:58:52.331Z,8.27
2023-03-13T09:01:37.868Z,9.48
2023-03-13T09:04:23.149Z,7.53
2023-03-13T09:07:08.497Z,7.13
2023-03-13T09:09:54.027Z,7.45
2023-03-13T09:12:39.689Z,9.43
2023-03-13T09:15:25.803Z,8.15
2023-03-13T09:18:11.644Z,7.88
2023-03-13T09:20:57.700Z,8.75
2023-03-13T09:23:44.592Z,8.00
2023-03-13T09:26:30.431Z,9.90
2023-03-13T09:29:16.601Z,9.25
2023-03-13T09:32:03.902Z,10.45
2023-03-13T09:34:49.407Z,7.18
2023-03-13T09:37:34.988Z,6.85
2023-03-13T09:40:23.790Z,9.02
2023-03-13T09:43:22.527Z,8.27
2023-03-13T09:46:15.034Z,7.45
2023-03-13T09:49:04.278Z,8.68
2023-03-13T09:51:58.726Z,7.80
2023-03-13T09:55:02.793Z,7.45
2023-03-13T09:57:59.892Z,8.27
2023-03-13T10:00:51.920Z,9.20
2023-03-13T10:03:46.034Z,7.75
2023-03-13T10:06:36.678Z,9.88
2023-03-13T10:09:34.001Z,9.80
2023-03-13T10:12:23.078Z,8.40
2023-03-13T10:15:18.063Z,7.45
2023-03-13T10:18:21.778Z,8.90
2023-03-13T10:21:26.085Z,8.43
2023-03-13T10:24:36.718Z,8.20
2023-03-13T10:27:22.378Z,9.18
2023-03-13T10:30:25.072Z,8.77
2023-03-13T10:33:19.323Z,7.97
2023-03-13T10:36:08.863Z,7.82
2023-03-13T10:38:55.303Z,9.70
2023-03-13T10:41:40.867Z,7.28
2023-03-13T10:44:33.135Z,8.90
2023-03-13T10:47:19.867Z,7.55
2023-03-13T10:50:05.614Z,8.25
2023-03-13T10:52:51.457Z,7.80
2023-03-13T10:55:44.449Z,7.85
2023-03-13T10:58:45.007Z,7.80
2023-03-13T11:01:43.932Z,7.60
2023-03-13T11:04:35.589Z,7.53
2023-03-13T11:07:46.268Z,7.13
2023-03-13T11:10:32.634Z,8.25
2023-03-13T11:13:36.452Z,9.77
2023-03-13T11:16:26.658Z,9.23
2023-03-13T11:19:35.764Z,7.78
2023-03-13T11:22:54.338Z,6.28
2023-03-13T11:25:45.817Z,7.20
2023-03-13T11:28:34.103Z,8.23
2023-03-13T11:31:28.899Z,8.68
2023-03-13T11:34:33.233Z,8.80
2023-03-13T11:37:21.609Z,8.20
2023-03-13T11:40:40.805Z,8.63
2023-03-13T11:43:52.261Z,7.07
2023-03-13T11:47:03.518Z,8.43
2023-03-13T11:49:55.027Z,10.00
2023-03-13T11:53:16.443Z,7.07
2023-03-13T11:56:10.301Z,7.93
2023-03-13T11:59:23.782Z,7.90
2023-03-13T12:02:38.718Z,6.38
2023-03-13T12:05:26.736Z,8.05
2023-03-13T12:08:21.366Z,7.78
2023-03-13T12:11:21.187Z,6.93
2023-03-13T12:14:22.606Z,8.32
2023-03-13T12:17:17.477Z,7.82
2023-03-13T12:20:09.894Z,7.70
2023-03-13T12:23:01.515Z,6.97
2023-03-13T12:26:03.155Z,6.88
2023-03-13T12:29:16.690Z,7.70
2023-03-13T12:32:22.780Z,7.85
2023-03-13T12:35:18.060Z,7.53
2023-03-13T12:38:26.443Z,8.05
2023-03-13T12:41:53.827Z,6.57
2023-03-13T12:44:40.163Z,9.43
2023-03-13T12:47:33.088Z,7.65
2023-03-13T12:50:37.776Z,8.27
2023-03-13T12:53:50.594Z,6.97
2023-03-13T12:57:00.940Z,8.30
2023-03-13T12:59:52.636Z,7.70
2023-03-13T13:02:38.680Z,7.60
2023-03-13T13:05:24.129Z,8.75
2023-03-13T13:08:25.175Z,9.05
2023-03-13T13:11:35.663Z,6.93
2023-03-13T13:14:21.093Z,7.28
2023-03-13T13:17:22.011Z,7.60
2023-03-13T13:20:33.595Z,7.47
2023-03-13T13:23:36.941Z,8.45
2023-03-13T13:26:33.806Z,7.72
2023-03-13T13:29:22.057Z,7.95
2023-03-13T13:32:15.278Z,7.80
2023-03-13T13:35:02.469Z,7.10
2023-03-13T13:37:49.609Z,6.95
2023-03-13T13:40:35.627Z,7.65
2023-03-13T13:43:25.104Z,7.45
2023-03-13T13:46:30.476Z,7.55
2023-03-13T13:49:23.076Z,7.38
2023-03-13T13:52:08.649Z,6.40
2023-03-13T13:54:56.842Z,8.43
2023-03-13T13:57:44.199Z,7.63
2023-03-13T14:00:55.762Z,7.00
2023-03-13T14:03:42.330Z,7.10
2023-03-13T14:06:33.087Z,7.25
2023-03-13T14:09:38.736Z,8.77
2023-03-13T14:12:35.965Z,7.93
2023-03-13T14:15:24.871Z,7.85
2023-03-13T14:18:14.940Z,7.30
2023-03-13T14:21:04.717Z,7.70
2023-03-13T14:23:49.989Z,8.05
2023-03-13T14:26:44.102Z,8.68
2023-03-13T14:29:29.920Z,7.75
2023-03-13T14:32:18.500Z,7.57
2023-03-13T14:35:09.354Z,7.30
2023-03-13T14:38:02.370Z,8.00
2023-03-13T14:40:48.778Z,7.93
2023-03-13T14:43:40.488Z,7.65
2023-03-13T14:46:39.826Z,8.35
2023-03-13T14:49:29.568Z,6.90
2023-03-13T14:52:23.850Z,8.68
2023-03-13T14:55:21.913Z,8.25
2023-03-13T14:58:30.464Z,9.40
2023-03-13T15:01:30.671Z,9.95
2023-03-13T15:04:16.345Z,7.20
2023-03-13T15:07:03.466Z,9.38
2023-03-13T15:09:50.223Z,7.80
2023-03-13T15:12:43.760Z,8.82
2023-03-13T15:15:29.412Z,8.05
2023-03-13T15:18:21.097Z,8.45
2023-03-13T15:21:17.424Z,9.02
2023-03-13T15:24:13.978Z,10.00
2023-03-13T15:26:59.807Z,7.05
2023-03-13T15:29:46.861Z,6.97
2023-03-13T15:32:40.283Z,8.60
2023-03-13T15:35:32.489Z,8.15
2023-03-13T15:38:23.664Z,7.75
2023-03-13T15:41:09.467Z,7.68
2023-03-13T15:43:57.020Z,8.02
2023-03-13T15:46:43.063Z,9.05
2023-03-13T15:49:28.536Z,6.65
2023-03-13T15:52:22.692Z,7.15
2023-03-13T15:55:10.086Z,6.55
2023-03-13T15:57:55.529Z,6.85
2023-03-13T16:00:41.100Z,8.20
2023-03-13T16:03:28.886Z,5.82
2023-03-13T16:06:18.996Z,5.78
2023-03-13T16:09:06.648Z,6.95
2023-03-13T16:11:52.084Z,5.15
2023-03-13T16:14:39.245Z,6.65
2023-03-13T16:17:28.152Z,10.10
2023-03-13T16:20:21.769Z,5.57
2023-03-13T16:23:07.773Z,7.05
2023-03-13T16:25:53.528Z,5.05
2023-03-13T16:28:39.193Z,7.28
2023-03-13T16:31:31.365Z,5.63
2023-03-13T16:34:16.989Z,6.60
2023-03-13T16:37:02.656Z,7.18
2023-03-13T16:39:50.483Z,7.35
2023-03-13T16:42:35.987Z,8.18
2023-03-13T16:45:21.806Z,7.43
2023-03-13T16:48:07.263Z,7.43
2023-03-13T16:50:52.861Z,7.68
2023-03-13T16:53:38.439Z,7.70
2023-03-13T16:56:28.918Z,5.75
2023-03-13T16:59:17.800Z,7.05
2023-03-13T17:02:03.414Z,6.68
2023-03-13T17:04:49.501Z,6.32
2023-03-13T17:07:35.277Z,7.88
2023-03-13T17:10:25.132Z,8.07
2023-03-13T17:13:10.739Z,6.85
2023-03-13T17:15:57.036Z,7.47
2023-03-13T17:18:44.337Z,6.18
2023-03-13T17:21:34.771Z,7.07
2023-03-13T17:24:20.067Z,5.70
2023-03-13T17:27:10.268Z,7.00
2023-03-13T17:29:55.934Z,9.18
2023-03-13T17:32:41.732Z,7.57
2023-03-13T17:35:27.303Z,7.93
2023-03-13T17:38:13.011Z,8.90
2023-03-13T17:40:59.673Z,8.10
2023-03-13T17:43:48.797Z,6.97
2023-03-13T17:46:41.955Z,6.63
2023-03-13T17:52:16.351Z,8.43
2023-03-13T17:55:01.514Z,7.05
2023-03-13T17:57:50.077Z,7.65
2023-03-13T18:00:45.035Z,7.32
2023-03-13T18:03:30.652Z,7.93
2023-03-13T18:06:31.681Z,6.47
2023-03-13T18:09:20.932Z,6.55
2023-03-13T18:12:08.896Z,6.15
2023-03-13T18:14:54.344Z,6.72
2023-03-13T18:17:40.524Z,6.55
2023-03-13T18:20:30.757Z,5.72
2023-03-13T18:23:16.503Z,6.15
2023-03-13T18:26:02.387Z,6.22
2023-03-13T18:28:48.234Z,7.60
2023-03-13T18:31:41.730Z,4.95
2023-03-13T18:34:28.413Z,5.25
2023-03-13T18:37:26.271Z,5.47
2023-03-13T18:40:22.024Z,6.13
2023-03-13T18:43:07.797Z,6.93
2023-03-13T18:45:53.397Z,4.88
2023-03-13T18:48:38.898Z,6.55
2023-03-13T18:51:26.280Z,6.63
2023-03-13T18:54:12.244Z,5.38
2023-03-13T18:56:57.653Z,5.70
2023-03-13T18:59:44.022Z,5.53
2023-03-13T19:02:29.566Z,4.78
2023-03-13T19:05:16.313Z,4.40
2023-03-13T19:08:01.888Z,4.57
2023-03-13T19:10:47.487Z,5.20
2023-03-13T19:13:38.325Z,4.63
2023-03-13T19:16:56.056Z,5.50
2023-03-13T19:19:41.780Z,5.85
2023-03-13T19:22:27.281Z,3.88
2023-03-13T19:25:16.330Z,4.70
2023-03-13T19:28:01.777Z,5.25
2023-03-13T19:30:47.718Z,4.75
2023-03-13T19:33:33.417Z,4.45
2023-03-13T19:36:21.071Z,5.38
2023-03-13T19:39:34.662Z,4.47
2023-03-13T19:42:20.222Z,5.35
2023-03-13T19:45:06.731Z,6.05
2023-03-13T19:47:52.471Z,3.28
2023-03-13T19:50:37.946Z,6.05
2023-03-13T19:53:23.550Z,4.97
2023-03-13T19:56:21.738Z,4.55
2023-03-13T19:59:14.223Z,4.35
2023-03-13T20:02:01.378Z,3.72
2023-03-13T20:04:47.230Z,4.03
2023-03-13T20:07:32.625Z,4.88
2023-03-13T20:10:18.276Z,4.20
2023-03-13T20:13:03.897Z,3.45
2023-03-13T20:15:49.356Z,4.78
2023-03-13T20:18:34.974Z,3.75
2023-03-13T20:21:20.434Z,4.78
2023-03-13T20:24:06.455Z,4.03
2023-03-13T20:26:52.004Z,4.57
2023-03-13T20:29:37.662Z,3.70
2023-03-13T20:32:23.229Z,5.00
2023-03-13T20:35:12.972Z,4.47
2023-03-13T20:38:00.846Z,4.35
2023-03-13T20:40:55.313Z,3.97
2023-03-13T20:43:41.163Z,3.83
2023-03-13T20:46:27.001Z,4.13
2023-03-13T20:49:12.844Z,5.38
2023-03-13T20:51:58.952Z,4.30
2023-03-13T20:54:44.731Z,5.38
2023-03-13T20:57:30.364Z,4.65
2023-03-13T21:00:16.484Z,3.90
2023-03-13T21:03:01.943Z,4.50
2023-03-13T21:05:47.478Z,3.67
2023-03-13T21:08:32.888Z,4.55
2023-03-13T21:11:21.607Z,5.07
2023-03-13T21:14:07.562Z,4.53
2023-03-13T21:16:53.369Z,4.05
2023-03-13T21:19:38.774Z,5.25
2023-03-13T21:22:27.277Z,4.57
2023-03-13T21:25:13.330Z,4.85
2023-03-13T21:27:58.692Z,4.43
2023-03-13T21:30:44.252Z,3.72
2023-03-13T21:33:29.790Z,4.95
2023-03-13T21:36:17.549Z,3.83
2023-03-13T21:39:03.117Z,5.07
2023-03-13T21:41:49.164Z,4.05
2023-03-13T21:44:35.462Z,4.32
2023-03-13T21:47:24.579Z,4.53
2023-03-13T21:50:11.059Z,4.10
2023-03-13T21:52:57.089Z,5.60
2023-03-13T21:55:42.845Z,3.95
2023-03-13T21:58:28.336Z,5.45
2023-03-13T22:01:14.976Z,4.38
2023-03-13T22:04:00.538Z,5.80
2023-03-13T22:06:46.289Z,5.47
2023-03-13T22:09:33.094Z,5.82
2023-03-13T22:12:19.053Z,5.55
2023-03-13T22:15:06.002Z,4.88
2023-03-13T22:17:51.898Z,6.18
2023-03-13T22:20:38.312Z,4.45
2023-03-13T22:23:23.918Z,4.47
2023-03-13T22:26:11.578Z,5.85
2023-03-13T22:28:56.999Z,4.72
2023-03-13T22:31:42.795Z,5.80
2023-03-13T22:34:28.563Z,6.30
2023-03-13T22:37:14.477Z,5.03
2023-03-13T22:40:00.040Z,5.93
2023-03-13T22:42:45.803Z,5.78
2023-03-13T22:45:32.270Z,6.53
2023-03-13T22:48:18.200Z,4.78
2023-03-13T22:51:12.140Z,5.43
2023-03-13T22:53:57.778Z,5.70
2023-03-13T22:56:43.254Z,5.90
2023-03-13T22:59:29.172Z,6.38
2023-03-13T23:02:14.988Z,8.02
2023-03-13T23:05:01.295Z,6.00
2023-03-13T23:07:47.223Z,6.20
2023-03-13T23:10:33.018Z,6.88
2023-03-13T23:13:19.010Z,5.82
2023-03-13T23:16:09.880Z,4.53
2023-03-13T23:18:55.238Z,6.25
2023-03-13T23:21:40.946Z,4.30
2023-03-13T23:24:26.647Z,6.07
2023-03-13T23:27:12.517Z,6.20
2023-03-13T23:29:57.962Z,5.88
2023-03-13T23:32:45.767Z,5.25
2023-03-13T23:35:31.829Z,5.45
2023-03-13T23:38:20.641Z,5.10
2023-03-13T23:41:13.429Z,6.10
2023-03-13T23:44:00.931Z,6.55
2023-03-13T23:46:46.311Z,8.27
2023-03-13T23:49:32.154Z,5.30
2023-03-13T23:52:17.851Z,7.32
2023-03-13T23:55:05.463Z,5.75
2023-03-13T23:57:51.048Z,6.60
